sensor_id;sensor_type;location;lat;lon;timestamp;temperature;humidity
18898;DHT22;9581;49.484;8.556;2023-05-17T00:00:25;10.90;99.90
18898;DHT22;9581;49.484;8.556;2023-05-17T00:02:52;11.00;99.90
18898;DHT22;9581;49.484;8.556;2023-05-17T00:05:19;11.00;99.90
18898;DHT22;9581;49.484;8.556;2023-05-17T00:07:45;11.10;99.90
18898;DHT22;9581;49.484;8.556;2023-05-17T00:10:13;11.50;99.90
18898;DHT22;9581;49.484;8.556;2023-05-17T00:12:41;11.50;99.90
18898;DHT22;9581;49.484;8.556;2023-05-17T00:15:08;11.40;99.90
18898;DHT22;9581;49.484;8.556;2023-05-17T00:17:35;11.40;99.90
18898;DHT22;9581;49.484;8.556;2023-05-17T00:20:03;11.70;99.90
18898;DHT22;9581;49.484;8.556;2023-05-17T00:22:30;11.70;99.90
18898;DHT22;9581;49.484;8.556;2023-05-17T00:24:56;11.80;99.90
18898;DHT22;9581;49.484;8.556;2023-05-17T00:27:23;11.90;99.90
18898;DHT22;9581;49.484;8.556;2023-05-17T00:29:52;11.90;99.90
18898;DHT22;9581;49.484;8.556;2023-05-17T00:32:18;11.90;99.90
18898;DHT22;9581;49.484;8.556;2023-05-17T00:34:45;11.80;99.90
18898;DHT22;9581;49.484;8.556;2023-05-17T00:37:12;11.90;99.90
18898;DHT22;9581;49.484;8.556;2023-05-17T00:39:39;11.90;99.90
18898;DHT22;9581;49.484;8.556;2023-05-17T00:42:05;12.00;99.90
18898;DHT22;9581;49.484;8.556;2023-05-17T00:44:32;11.90;99.90
18898;DHT22;9581;49.484;8.556;2023-05-17T00:47:00;11.90;99.90
18898;DHT22;9581;49.484;8.556;2023-05-17T00:49:27;11.90;99.90
18898;DHT22;9581;49.484;8.556;2023-05-17T00:51:54;11.90;99.90
18898;DHT22;9581;49.484;8.556;2023-05-17T00:54:21;11.90;99.90
18898;DHT22;9581;49.484;8.556;2023-05-17T00:56:48;11.80;99.90
18898;DHT22;9581;49.484;8.556;2023-05-17T00:59:16;11.80;99.90
18898;DHT22;9581;49.484;8.556;2023-05-17T01:01:43;11.60;99.90
18898;DHT22;9581;49.484;8.556;2023-05-17T01:04:11;11.80;99.90
18898;DHT22;9581;49.484;8.556;2023-05-17T01:06:38;11.70;99.90
18898;DHT22;9581;49.484;8.556;2023-05-17T01:09:06;11.70;99.90
18898;DHT22;9581;49.484;8.556;2023-05-17T01:11:40;11.70;99.90
18898;DHT22;9581;49.484;8.556;2023-05-17T01:14:17;11.70;99.90
18898;DHT22;9581;49.484;8.556;2023-05-17T01:16:48;11.60;99.90
18898;DHT22;9581;49.484;8.556;2023-05-17T01:22:19;11.50;99.90
18898;DHT22;9581;49.484;8.556;2023-05-17T01:24:59;11.60;99.90
18898;DHT22;9581;49.484;8.556;2023-05-17T01:27:31;11.50;99.90
18898;DHT22;9581;49.484;8.556;2023-05-17T01:29:59;11.50;99.90
18898;DHT22;9581;49.484;8.556;2023-05-17T01:32:28;11.60;99.90
18898;DHT22;9581;49.484;8.556;2023-05-17T01:34:57;11.30;99.90
18898;DHT22;9581;49.484;8.556;2023-05-17T01:37:24;11.40;99.90
18898;DHT22;9581;49.484;8.556;2023-05-17T01:39:51;11.20;99.90
18898;DHT22;9581;49.484;8.556;2023-05-17T01:42:21;11.30;99.90
18898;DHT22;9581;49.484;8.556;2023-05-17T01:45:02;11.40;99.90
18898;DHT22;9581;49.484;8.556;2023-05-17T01:47:38;11.40;99.90
18898;DHT22;9581;49.484;8.556;2023-05-17T01:50:06;11.60;99.90
18898;DHT22;9581;49.484;8.556;2023-05-17T01:52:39;11.30;99.90
18898;DHT22;9581;49.484;8.556;2023-05-17T01:55:09;11.20;99.90
18898;DHT22;9581;49.484;8.556;2023-05-17T01:57:43;11.10;99.90
18898;DHT22;9581;49.484;8.556;2023-05-17T02:00:13;11.30;99.90
18898;DHT22;9581;49.484;8.556;2023-05-17T02:02:40;11.10;99.90
18898;DHT22;9581;49.484;8.556;2023-05-17T02:05:07;10.70;99.90
18898;DHT22;9581;49.484;8.556;2023-05-17T02:07:34;10.80;99.90
18898;DHT22;9581;49.484;8.556;2023-05-17T02:10:01;10.80;99.90
18898;DHT22;9581;49.484;8.556;2023-05-17T02:12:28;10.60;99.90
18898;DHT22;9581;49.484;8.556;2023-05-17T02:14:55;10.30;99.90
18898;DHT22;9581;49.484;8.556;2023-05-17T02:17:23;10.40;99.90
18898;DHT22;9581;49.484;8.556;2023-05-17T02:19:50;10.20;99.90
18898;DHT22;9581;49.484;8.556;2023-05-17T02:22:16;9.90;99.90
18898;DHT22;9581;49.484;8.556;2023-05-17T02:24:43;9.80;99.90
18898;DHT22;9581;49.484;8.556;2023-05-17T02:27:11;9.80;99.90
18898;DHT22;9581;49.484;8.556;2023-05-17T02:29:37;9.70;99.90
18898;DHT22;9581;49.484;8.556;2023-05-17T02:32:05;9.90;99.90
18898;DHT22;9581;49.484;8.556;2023-05-17T02:34:33;10.00;99.90
18898;DHT22;9581;49.484;8.556;2023-05-17T02:37:00;10.10;99.90
18898;DHT22;9581;49.484;8.556;2023-05-17T02:39:31;10.10;99.90
18898;DHT22;9581;49.484;8.556;2023-05-17T02:41:57;9.80;99.90
18898;DHT22;9581;49.484;8.556;2023-05-17T02:44:24;9.40;99.90
18898;DHT22;9581;49.484;8.556;2023-05-17T02:46:51;9.40;99.90
18898;DHT22;9581;49.484;8.556;2023-05-17T02:49:17;9.30;99.90
18898;DHT22;9581;49.484;8.556;2023-05-17T02:51:46;9.40;99.90
18898;DHT22;9581;49.484;8.556;2023-05-17T02:54:12;9.70;99.90
18898;DHT22;9581;49.484;8.556;2023-05-17T02:56:39;9.90;99.90
18898;DHT22;9581;49.484;8.556;2023-05-17T02:59:06;10.00;99.90
18898;DHT22;9581;49.484;8.556;2023-05-17T03:01:32;9.80;99.90
18898;DHT22;9581;49.484;8.556;2023-05-17T03:03:59;10.10;99.90
18898;DHT22;9581;49.484;8.556;2023-05-17T03:06:26;10.40;99.90
18898;DHT22;9581;49.484;8.556;2023-05-17T03:08:54;10.20;99.90
18898;DHT22;9581;49.484;8.556;2023-05-17T03:11:21;10.10;99.90
18898;DHT22;9581;49.484;8.556;2023-05-17T03:13:48;10.00;99.90
18898;DHT22;9581;49.484;8.556;2023-05-17T03:16:16;10.00;99.90
18898;DHT22;9581;49.484;8.556;2023-05-17T03:18:43;10.30;99.90
18898;DHT22;9581;49.484;8.556;2023-05-17T03:21:09;10.70;99.90
18898;DHT22;9581;49.484;8.556;2023-05-17T03:23:36;10.90;99.90
18898;DHT22;9581;49.484;8.556;2023-05-17T03:26:04;11.00;99.90
18898;DHT22;9581;49.484;8.556;2023-05-17T03:28:31;10.80;99.90
18898;DHT22;9581;49.484;8.556;2023-05-17T03:30:58;10.90;99.90
18898;DHT22;9581;49.484;8.556;2023-05-17T03:33:24;10.90;99.90
18898;DHT22;9581;49.484;8.556;2023-05-17T03:35:51;10.70;99.90
18898;DHT22;9581;49.484;8.556;2023-05-17T03:38:18;10.60;99.90
18898;DHT22;9581;49.484;8.556;2023-05-17T03:40:45;10.70;99.90
18898;DHT22;9581;49.484;8.556;2023-05-17T03:43:13;10.60;99.90
18898;DHT22;9581;49.484;8.556;2023-05-17T03:45:39;10.40;99.90
18898;DHT22;9581;49.484;8.556;2023-05-17T03:48:06;10.50;99.90
18898;DHT22;9581;49.484;8.556;2023-05-17T03:50:33;10.60;99.90
18898;DHT22;9581;49.484;8.556;2023-05-17T03:53:00;10.60;99.90
18898;DHT22;9581;49.484;8.556;2023-05-17T03:55:26;10.80;99.90
18898;DHT22;9581;49.484;8.556;2023-05-17T03:57:53;10.80;99.90
18898;DHT22;9581;49.484;8.556;2023-05-17T04:00:21;10.60;99.90
18898;DHT22;9581;49.484;8.556;2023-05-17T04:02:49;10.80;99.90
18898;DHT22;9581;49.484;8.556;2023-05-17T04:05:17;10.80;99.90
18898;DHT22;9581;49.484;8.556;2023-05-17T04:07:43;10.80;99.90
18898;DHT22;9581;49.484;8.556;2023-05-17T04:10:10;10.90;99.90
18898;DHT22;9581;49.484;8.556;2023-05-17T04:12:37;11.00;99.90
18898;DHT22;9581;49.484;8.556;2023-05-17T04:15:04;11.00;99.90
18898;DHT22;9581;49.484;8.556;2023-05-17T04:17:33;10.70;99.90
18898;DHT22;9581;49.484;8.556;2023-05-17T04:20:00;10.70;99.90
18898;DHT22;9581;49.484;8.556;2023-05-17T04:22:28;10.80;99.90
18898;DHT22;9581;49.484;8.556;2023-05-17T04:24:55;10.80;99.90
18898;DHT22;9581;49.484;8.556;2023-05-17T04:27:22;10.90;99.90
18898;DHT22;9581;49.484;8.556;2023-05-17T04:29:48;10.60;99.90
18898;DHT22;9581;49.484;8.556;2023-05-17T04:32:16;10.50;99.90
18898;DHT22;9581;49.484;8.556;2023-05-17T04:34:44;10.30;99.90
18898;DHT22;9581;49.484;8.556;2023-05-17T04:37:12;10.20;99.90
18898;DHT22;9581;49.484;8.556;2023-05-17T04:39:39;10.20;99.90
18898;DHT22;9581;49.484;8.556;2023-05-17T04:42:06;10.20;99.90
18898;DHT22;9581;49.484;8.556;2023-05-17T04:44:33;10.30;99.90
18898;DHT22;9581;49.484;8.556;2023-05-17T04:47:00;10.50;99.90
18898;DHT22;9581;49.484;8.556;2023-05-17T04:49:28;10.60;99.90
18898;DHT22;9581;49.484;8.556;2023-05-17T04:51:56;10.60;99.90
18898;DHT22;9581;49.484;8.556;2023-05-17T04:54:23;10.60;99.90
18898;DHT22;9581;49.484;8.556;2023-05-17T04:56:50;10.70;99.90
18898;DHT22;9581;49.484;8.556;2023-05-17T04:59:17;10.80;99.90
18898;DHT22;9581;49.484;8.556;2023-05-17T05:01:43;10.50;99.90
18898;DHT22;9581;49.484;8.556;2023-05-17T05:04:10;10.80;99.90
18898;DHT22;9581;49.484;8.556;2023-05-17T05:06:37;11.00;99.90
18898;DHT22;9581;49.484;8.556;2023-05-17T05:09:06;11.00;99.90
18898;DHT22;9581;49.484;8.556;2023-05-17T05:11:34;10.80;99.90
18898;DHT22;9581;49.484;8.556;2023-05-17T05:14:01;10.80;99.90
18898;DHT22;9581;49.484;8.556;2023-05-17T05:16:28;10.80;99.90
18898;DHT22;9581;49.484;8.556;2023-05-17T05:18:55;10.60;99.90
18898;DHT22;9581;49.484;8.556;2023-05-17T05:21:22;10.50;99.90
18898;DHT22;9581;49.484;8.556;2023-05-17T05:23:49;10.70;99.90
18898;DHT22;9581;49.484;8.556;2023-05-17T05:26:17;10.80;99.90
18898;DHT22;9581;49.484;8.556;2023-05-17T05:28:43;10.70;99.90
18898;DHT22;9581;49.484;8.556;2023-05-17T05:31:10;10.70;99.90
18898;DHT22;9581;49.484;8.556;2023-05-17T05:33:37;10.60;99.90
18898;DHT22;9581;49.484;8.556;2023-05-17T05:36:04;10.40;99.90
18898;DHT22;9581;49.484;8.556;2023-05-17T05:38:31;10.50;99.90
18898;DHT22;9581;49.484;8.556;2023-05-17T05:40:58;10.60;99.90
18898;DHT22;9581;49.484;8.556;2023-05-17T05:43:26;10.60;99.90
18898;DHT22;9581;49.484;8.556;2023-05-17T05:45:53;10.70;99.90
18898;DHT22;9581;49.484;8.556;2023-05-17T05:48:19;11.10;99.90
18898;DHT22;9581;49.484;8.556;2023-05-17T05:50:46;11.20;99.90
18898;DHT22;9581;49.484;8.556;2023-05-17T05:53:13;11.40;99.90
18898;DHT22;9581;49.484;8.556;2023-05-17T05:55:40;11.50;99.90
18898;DHT22;9581;49.484;8.556;2023-05-17T05:58:07;11.70;99.90
18898;DHT22;9581;49.484;8.556;2023-05-17T06:00:35;11.70;99.90
18898;DHT22;9581;49.484;8.556;2023-05-17T06:03:03;11.80;99.90
18898;DHT22;9581;49.484;8.556;2023-05-17T06:05:30;11.70;99.90
18898;DHT22;9581;49.484;8.556;2023-05-17T06:07:57;12.00;99.90
18898;DHT22;9581;49.484;8.556;2023-05-17T06:10:24;12.10;99.90
18898;DHT22;9581;49.484;8.556;2023-05-17T06:12:50;12.20;99.90
18898;DHT22;9581;49.484;8.556;2023-05-17T06:15:17;12.30;99.90
18898;DHT22;9581;49.484;8.556;2023-05-17T06:17:45;12.40;99.90
18898;DHT22;9581;49.484;8.556;2023-05-17T06:20:12;12.20;99.90
18898;DHT22;9581;49.484;8.556;2023-05-17T06:22:39;12.10;99.90
18898;DHT22;9581;49.484;8.556;2023-05-17T06:25:06;12.30;99.90
18898;DHT22;9581;49.484;8.556;2023-05-17T06:27:33;12.40;99.90
18898;DHT22;9581;49.484;8.556;2023-05-17T06:30:00;12.50;99.90
18898;DHT22;9581;49.484;8.556;2023-05-17T06:32:28;12.60;99.90
18898;DHT22;9581;49.484;8.556;2023-05-17T06:34:56;12.70;99.90
18898;DHT22;9581;49.484;8.556;2023-05-17T06:37:23;12.80;99.90
18898;DHT22;9581;49.484;8.556;2023-05-17T06:39:50;12.80;99.90
18898;DHT22;9581;49.484;8.556;2023-05-17T06:42:17;12.80;99.90
18898;DHT22;9581;49.484;8.556;2023-05-17T06:44:44;12.90;99.90
18898;DHT22;9581;49.484;8.556;2023-05-17T06:47:11;13.10;99.90
18898;DHT22;9581;49.484;8.556;2023-05-17T06:49:38;13.20;99.90
18898;DHT22;9581;49.484;8.556;2023-05-17T06:52:06;13.20;99.90
18898;DHT22;9581;49.484;8.556;2023-05-17T06:54:32;13.40;99.90
18898;DHT22;9581;49.484;8.556;2023-05-17T06:56:59;13.20;99.90
18898;DHT22;9581;49.484;8.556;2023-05-17T06:59:26;13.30;99.90
18898;DHT22;9581;49.484;8.556;2023-05-17T07:01:53;13.30;99.90
18898;DHT22;9581;49.484;8.556;2023-05-17T07:04:20;13.30;99.90
18898;DHT22;9581;49.484;8.556;2023-05-17T07:06:47;13.50;99.90
18898;DHT22;9581;49.484;8.556;2023-05-17T07:09:15;13.60;99.90
18898;DHT22;9581;49.484;8.556;2023-05-17T07:11:42;13.50;99.90
18898;DHT22;9581;49.484;8.556;2023-05-17T07:14:08;13.50;99.90
18898;DHT22;9581;49.484;8.556;2023-05-17T07:16:35;13.70;99.90
18898;DHT22;9581;49.484;8.556;2023-05-17T07:19:02;13.70;99.90
18898;DHT22;9581;49.484;8.556;2023-05-17T07:21:29;13.80;99.90
18898;DHT22;9581;49.484;8.556;2023-05-17T07:23:56;13.90;99.90
18898;DHT22;9581;49.484;8.556;2023-05-17T07:26:24;14.00;99.90
18898;DHT22;9581;49.484;8.556;2023-05-17T07:28:51;14.10;99.90
18898;DHT22;9581;49.484;8.556;2023-05-17T07:31:18;14.40;99.90
18898;DHT22;9581;49.484;8.556;2023-05-17T07:33:45;14.70;99.90
18898;DHT22;9581;49.484;8.556;2023-05-17T07:36:11;14.90;99.90
18898;DHT22;9581;49.484;8.556;2023-05-17T07:38:38;15.00;99.90
18898;DHT22;9581;49.484;8.556;2023-05-17T07:41:06;15.20;99.90
18898;DHT22;9581;49.484;8.556;2023-05-17T07:43:35;15.60;99.90
18898;DHT22;9581;49.484;8.556;2023-05-17T07:46:03;15.70;99.90
18898;DHT22;9581;49.484;8.556;2023-05-17T07:48:30;15.60;99.90
18898;DHT22;9581;49.484;8.556;2023-05-17T07:50:57;15.90;99.90
18898;DHT22;9581;49.484;8.556;2023-05-17T07:53:23;16.10;99.90
18898;DHT22;9581;49.484;8.556;2023-05-17T07:55:50;16.20;99.90
18898;DHT22;9581;49.484;8.556;2023-05-17T07:58:17;16.00;99.90
18898;DHT22;9581;49.484;8.556;2023-05-17T08:00:45;16.00;99.90
18898;DHT22;9581;49.484;8.556;2023-05-17T08:03:12;16.40;99.90
18898;DHT22;9581;49.484;8.556;2023-05-17T08:05:38;16.30;99.90
18898;DHT22;9581;49.484;8.556;2023-05-17T08:08:05;15.90;99.90
18898;DHT22;9581;49.484;8.556;2023-05-17T08:10:32;15.70;99.90
18898;DHT22;9581;49.484;8.556;2023-05-17T08:13:00;15.50;99.90
18898;DHT22;9581;49.484;8.556;2023-05-17T08:15:28;15.30;99.90
18898;DHT22;9581;49.484;8.556;2023-05-17T08:17:56;15.60;99.90
18898;DHT22;9581;49.484;8.556;2023-05-17T08:20:23;15.40;99.90
18898;DHT22;9581;49.484;8.556;2023-05-17T08:22:49;15.30;99.90
18898;DHT22;9581;49.484;8.556;2023-05-17T08:25:17;15.40;99.90
18898;DHT22;9581;49.484;8.556;2023-05-17T08:27:44;15.30;99.90
18898;DHT22;9581;49.484;8.556;2023-05-17T08:30:11;15.40;99.90
18898;DHT22;9581;49.484;8.556;2023-05-17T08:32:38;15.50;99.90
18898;DHT22;9581;49.484;8.556;2023-05-17T08:35:07;15.70;99.90
18898;DHT22;9581;49.484;8.556;2023-05-17T08:37:33;15.80;99.90
18898;DHT22;9581;49.484;8.556;2023-05-17T08:40:00;15.70;99.90
18898;DHT22;9581;49.484;8.556;2023-05-17T08:42:29;15.80;99.90
18898;DHT22;9581;49.484;8.556;2023-05-17T08:44:56;16.20;99.90
18898;DHT22;9581;49.484;8.556;2023-05-17T08:47:25;16.10;99.90
18898;DHT22;9581;49.484;8.556;2023-05-17T08:49:54;16.00;99.90
18898;DHT22;9581;49.484;8.556;2023-05-17T08:52:23;16.00;99.90
18898;DHT22;9581;49.484;8.556;2023-05-17T08:54:50;16.00;99.90
18898;DHT22;9581;49.484;8.556;2023-05-17T08:57:17;16.00;99.90
18898;DHT22;9581;49.484;8.556;2023-05-17T08:59:45;16.10;99.90
18898;DHT22;9581;49.484;8.556;2023-05-17T09:02:13;16.30;99.90
18898;DHT22;9581;49.484;8.556;2023-05-17T09:04:41;16.50;99.90
18898;DHT22;9581;49.484;8.556;2023-05-17T09:07:08;16.60;99.90
18898;DHT22;9581;49.484;8.556;2023-05-17T09:09:37;16.80;99.90
18898;DHT22;9581;49.484;8.556;2023-05-17T09:12:04;16.90;99.90
18898;DHT22;9581;49.484;8.556;2023-05-17T09:14:32;16.90;99.90
18898;DHT22;9581;49.484;8.556;2023-05-17T09:17:00;17.20;99.90
18898;DHT22;9581;49.484;8.556;2023-05-17T09:19:27;17.10;99.90
18898;DHT22;9581;49.484;8.556;2023-05-17T09:21:59;18.00;99.10
18898;DHT22;9581;49.484;8.556;2023-05-17T09:24:27;18.70;98.20
18898;DHT22;9581;49.484;8.556;2023-05-17T09:27:02;18.90;96.60
18898;DHT22;9581;49.484;8.556;2023-05-17T09:29:30;18.80;96.40
18898;DHT22;9581;49.484;8.556;2023-05-17T09:32:11;18.60;96.40
18898;DHT22;9581;49.484;8.556;2023-05-17T09:34:39;19.20;95.70
18898;DHT22;9581;49.484;8.556;2023-05-17T09:37:11;19.10;95.20
18898;DHT22;9581;49.484;8.556;2023-05-17T09:39:38;19.40;95.80
18898;DHT22;9581;49.484;8.556;2023-05-17T09:42:07;19.60;95.00
18898;DHT22;9581;49.484;8.556;2023-05-17T09:44:48;19.10;94.10
18898;DHT22;9581;49.484;8.556;2023-05-17T09:47:23;18.70;93.90
18898;DHT22;9581;49.484;8.556;2023-05-17T09:49:50;18.50;93.20
18898;DHT22;9581;49.484;8.556;2023-05-17T09:52:17;18.60;93.10
18898;DHT22;9581;49.484;8.556;2023-05-17T09:54:50;18.60;95.20
18898;DHT22;9581;49.484;8.556;2023-05-17T09:57:19;18.90;95.10
18898;DHT22;9581;49.484;8.556;2023-05-17T09:59:46;19.20;93.30
18898;DHT22;9581;49.484;8.556;2023-05-17T10:02:20;19.50;93.00
18898;DHT22;9581;49.484;8.556;2023-05-17T10:04:48;19.50;92.50
18898;DHT22;9581;49.484;8.556;2023-05-17T10:07:18;18.90;92.00
18898;DHT22;9581;49.484;8.556;2023-05-17T10:09:46;18.60;92.70
18898;DHT22;9581;49.484;8.556;2023-05-17T10:12:16;18.70;93.50
18898;DHT22;9581;49.484;8.556;2023-05-17T10:14:44;18.40;93.00
18898;DHT22;9581;49.484;8.556;2023-05-17T10:17:13;18.20;93.00
18898;DHT22;9581;49.484;8.556;2023-05-17T10:19:40;18.10;92.90
18898;DHT22;9581;49.484;8.556;2023-05-17T10:22:07;17.80;92.80
18898;DHT22;9581;49.484;8.556;2023-05-17T10:24:34;17.90;93.10
18898;DHT22;9581;49.484;8.556;2023-05-17T10:27:02;18.00;93.40
18898;DHT22;9581;49.484;8.556;2023-05-17T10:29:32;18.00;93.40
18898;DHT22;9581;49.484;8.556;2023-05-17T10:32:03;18.10;93.30
18898;DHT22;9581;49.484;8.556;2023-05-17T10:34:33;18.10;93.40
18898;DHT22;9581;49.484;8.556;2023-05-17T10:37:00;18.30;93.00
18898;DHT22;9581;49.484;8.556;2023-05-17T10:39:27;18.50;93.40
18898;DHT22;9581;49.484;8.556;2023-05-17T10:41:56;18.70;92.90
18898;DHT22;9581;49.484;8.556;2023-05-17T10:44:23;19.20;93.10
18898;DHT22;9581;49.484;8.556;2023-05-17T10:46:52;20.00;92.70
18898;DHT22;9581;49.484;8.556;2023-05-17T10:49:23;20.40;89.70
18898;DHT22;9581;49.484;8.556;2023-05-17T10:51:51;21.00;90.90
18898;DHT22;9581;49.484;8.556;2023-05-17T10:54:20;23.80;90.40
18898;DHT22;9581;49.484;8.556;2023-05-17T10:56:48;24.80;85.00
18898;DHT22;9581;49.484;8.556;2023-05-17T10:59:17;24.60;81.00
18898;DHT22;9581;49.484;8.556;2023-05-17T11:01:57;24.80;82.60
18898;DHT22;9581;49.484;8.556;2023-05-17T11:04:26;25.30;77.60
18898;DHT22;9581;49.484;8.556;2023-05-17T11:07:23;25.20;78.80
18898;DHT22;9581;49.484;8.556;2023-05-17T11:09:53;23.40;77.30
18898;DHT22;9581;49.484;8.556;2023-05-17T11:12:31;22.60;75.10
18898;DHT22;9581;49.484;8.556;2023-05-17T11:14:59;22.40;78.60
18898;DHT22;9581;49.484;8.556;2023-05-17T11:17:27;22.70;76.30
18898;DHT22;9581;49.484;8.556;2023-05-17T11:20:05;23.10;75.30
18898;DHT22;9581;49.484;8.556;2023-05-17T11:22:36;22.60;75.40
18898;DHT22;9581;49.484;8.556;2023-05-17T11:25:06;22.70;77.00
18898;DHT22;9581;49.484;8.556;2023-05-17T11:27:36;22.30;74.70
18898;DHT22;9581;49.484;8.556;2023-05-17T11:30:20;24.00;75.30
18898;DHT22;9581;49.484;8.556;2023-05-17T11:32:50;27.00;70.90
18898;DHT22;9581;49.484;8.556;2023-05-17T11:35:22;25.50;65.50
18898;DHT22;9581;49.484;8.556;2023-05-17T11:37:51;24.40;68.60
18898;DHT22;9581;49.484;8.556;2023-05-17T11:40:24;22.80;70.80
18898;DHT22;9581;49.484;8.556;2023-05-17T11:43:13;23.00;71.00
18898;DHT22;9581;49.484;8.556;2023-05-17T11:45:41;22.50;67.90
18898;DHT22;9581;49.484;8.556;2023-05-17T11:48:09;25.20;71.70
18898;DHT22;9581;49.484;8.556;2023-05-17T11:50:38;26.90;68.80
18898;DHT22;9581;49.484;8.556;2023-05-17T11:53:05;27.30;66.00
18898;DHT22;9581;49.484;8.556;2023-05-17T11:55:37;28.60;65.50
18898;DHT22;9581;49.484;8.556;2023-05-17T11:58:06;28.90;62.50
18898;DHT22;9581;49.484;8.556;2023-05-17T12:00:33;26.80;64.60
18898;DHT22;9581;49.484;8.556;2023-05-17T12:03:17;25.70;63.90
18898;DHT22;9581;49.484;8.556;2023-05-17T12:05:46;24.70;64.90
18898;DHT22;9581;49.484;8.556;2023-05-17T12:08:14;25.20;64.20
18898;DHT22;9581;49.484;8.556;2023-05-17T12:10:44;25.80;64.40
18898;DHT22;9581;49.484;8.556;2023-05-17T12:13:11;28.80;62.50
18898;DHT22;9581;49.484;8.556;2023-05-17T12:15:38;29.30;58.40
18898;DHT22;9581;49.484;8.556;2023-05-17T12:18:06;28.00;59.40
18898;DHT22;9581;49.484;8.556;2023-05-17T12:20:33;26.60;60.90
18898;DHT22;9581;49.484;8.556;2023-05-17T12:23:04;25.70;63.10
18898;DHT22;9581;49.484;8.556;2023-05-17T12:25:30;24.80;63.00
18898;DHT22;9581;49.484;8.556;2023-05-17T12:28:14;25.80;61.60
18898;DHT22;9581;49.484;8.556;2023-05-17T12:30:41;26.70;58.10
18898;DHT22;9581;49.484;8.556;2023-05-17T12:33:08;27.90;57.60
18898;DHT22;9581;49.484;8.556;2023-05-17T12:35:35;29.70;56.70
18898;DHT22;9581;49.484;8.556;2023-05-17T12:38:03;30.30;56.90
18898;DHT22;9581;49.484;8.556;2023-05-17T12:40:30;31.30;56.40
18898;DHT22;9581;49.484;8.556;2023-05-17T12:43:00;31.20;53.80
18898;DHT22;9581;49.484;8.556;2023-05-17T12:45:28;31.00;52.90
18898;DHT22;9581;49.484;8.556;2023-05-17T12:47:54;31.50;52.80
18898;DHT22;9581;49.484;8.556;2023-05-17T12:50:24;32.10;53.00
18898;DHT22;9581;49.484;8.556;2023-05-17T12:52:52;32.70;51.80
18898;DHT22;9581;49.484;8.556;2023-05-17T12:55:21;29.90;49.90
18898;DHT22;9581;49.484;8.556;2023-05-17T12:57:49;29.50;52.20
18898;DHT22;9581;49.484;8.556;2023-05-17T13:00:17;31.70;53.40
18898;DHT22;9581;49.484;8.556;2023-05-17T13:02:44;30.60;52.60
18898;DHT22;9581;49.484;8.556;2023-05-17T13:05:15;30.10;52.10
18898;DHT22;9581;49.484;8.556;2023-05-17T13:07:43;30.20;51.80
18898;DHT22;9581;49.484;8.556;2023-05-17T13:10:21;31.50;51.70
18898;DHT22;9581;49.484;8.556;2023-05-17T13:12:55;32.70;50.40
18898;DHT22;9581;49.484;8.556;2023-05-17T13:15:28;33.50;48.70
18898;DHT22;9581;49.484;8.556;2023-05-17T13:17:55;30.50;49.20
18898;DHT22;9581;49.484;8.556;2023-05-17T13:20:22;28.50;52.20
18898;DHT22;9581;49.484;8.556;2023-05-17T13:22:49;28.10;51.30
18898;DHT22;9581;49.484;8.556;2023-05-17T13:25:16;30.00;52.80
18898;DHT22;9581;49.484;8.556;2023-05-17T13:27:45;32.60;49.80
18898;DHT22;9581;49.484;8.556;2023-05-17T13:30:14;33.70;48.50
18898;DHT22;9581;49.484;8.556;2023-05-17T13:32:41;34.60;46.40
18898;DHT22;9581;49.484;8.556;2023-05-17T13:35:08;33.00;45.60
18898;DHT22;9581;49.484;8.556;2023-05-17T13:37:35;33.50;48.10
18898;DHT22;9581;49.484;8.556;2023-05-17T13:40:02;33.10;46.30
18898;DHT22;9581;49.484;8.556;2023-05-17T13:42:29;29.70;47.20
18898;DHT22;9581;49.484;8.556;2023-05-17T13:44:58;30.20;48.60
18898;DHT22;9581;49.484;8.556;2023-05-17T13:47:26;29.90;48.00
18898;DHT22;9581;49.484;8.556;2023-05-17T13:49:54;28.60;50.40
18898;DHT22;9581;49.484;8.556;2023-05-17T13:52:21;28.90;49.60
18898;DHT22;9581;49.484;8.556;2023-05-17T13:54:47;31.40;49.00
18898;DHT22;9581;49.484;8.556;2023-05-17T13:57:14;34.00;45.80
18898;DHT22;9581;49.484;8.556;2023-05-17T13:59:41;35.50;45.60
18898;DHT22;9581;49.484;8.556;2023-05-17T14:02:10;33.90;44.30
18898;DHT22;9581;49.484;8.556;2023-05-17T14:04:37;34.50;44.70
18898;DHT22;9581;49.484;8.556;2023-05-17T14:07:04;36.60;43.20
18898;DHT22;9581;49.484;8.556;2023-05-17T14:09:31;37.20;42.70
18898;DHT22;9581;49.484;8.556;2023-05-17T14:11:59;35.30;41.90
18898;DHT22;9581;49.484;8.556;2023-05-17T14:14:26;33.80;43.60
18898;DHT22;9581;49.484;8.556;2023-05-17T14:16:53;32.10;43.50
18898;DHT22;9581;49.484;8.556;2023-05-17T14:19:21;31.60;44.70
18898;DHT22;9581;49.484;8.556;2023-05-17T14:21:48;29.70;47.20
18898;DHT22;9581;49.484;8.556;2023-05-17T14:24:15;28.90;48.10
18898;DHT22;9581;49.484;8.556;2023-05-17T14:26:43;28.50;49.50
18898;DHT22;9581;49.484;8.556;2023-05-17T14:29:10;31.10;46.80
18898;DHT22;9581;49.484;8.556;2023-05-17T14:31:37;32.90;44.70
18898;DHT22;9581;49.484;8.556;2023-05-17T14:34:03;37.50;43.20
18898;DHT22;9581;49.484;8.556;2023-05-17T14:36:32;40.70;39.30
18898;DHT22;9581;49.484;8.556;2023-05-17T14:39:00;41.60;37.70
18898;DHT22;9581;49.484;8.556;2023-05-17T14:41:28;35.70;39.50
18898;DHT22;9581;49.484;8.556;2023-05-17T14:43:55;33.00;43.40
18898;DHT22;9581;49.484;8.556;2023-05-17T14:46:22;33.60;43.30
18898;DHT22;9581;49.484;8.556;2023-05-17T14:48:49;38.80;39.90
18898;DHT22;9581;49.484;8.556;2023-05-17T14:51:16;41.20;37.00
18898;DHT22;9581;49.484;8.556;2023-05-17T14:53:45;42.60;36.00
18898;DHT22;9581;49.484;8.556;2023-05-17T14:56:12;44.20;34.60
18898;DHT22;9581;49.484;8.556;2023-05-17T14:58:39;44.40;33.30
18898;DHT22;9581;49.484;8.556;2023-05-17T15:01:06;43.00;32.50
18898;DHT22;9581;49.484;8.556;2023-05-17T15:03:33;42.10;32.00
18898;DHT22;9581;49.484;8.556;2023-05-17T15:06:00;42.10;32.20
18898;DHT22;9581;49.484;8.556;2023-05-17T15:08:27;41.50;33.50
18898;DHT22;9581;49.484;8.556;2023-05-17T15:10:55;41.00;34.00
18898;DHT22;9581;49.484;8.556;2023-05-17T15:13:23;41.20;33.30
18898;DHT22;9581;49.484;8.556;2023-05-17T15:15:50;39.60;33.20
18898;DHT22;9581;49.484;8.556;2023-05-17T15:18:18;40.10;34.30
18898;DHT22;9581;49.484;8.556;2023-05-17T15:20:45;36.50;34.00
18898;DHT22;9581;49.484;8.556;2023-05-17T15:23:12;35.90;37.70
18898;DHT22;9581;49.484;8.556;2023-05-17T15:25:39;36.80;36.00
18898;DHT22;9581;49.484;8.556;2023-05-17T15:28:07;37.00;36.70
18898;DHT22;9581;49.484;8.556;2023-05-17T15:30:34;37.00;35.80
18898;DHT22;9581;49.484;8.556;2023-05-17T15:33:01;34.10;36.50
18898;DHT22;9581;49.484;8.556;2023-05-17T15:35:27;33.20;38.60
18898;DHT22;9581;49.484;8.556;2023-05-17T15:37:56;34.30;37.90
18898;DHT22;9581;49.484;8.556;2023-05-17T15:40:24;33.20;39.10
18898;DHT22;9581;49.484;8.556;2023-05-17T15:42:50;31.50;39.50
18898;DHT22;9581;49.484;8.556;2023-05-17T15:45:19;33.10;39.30
18898;DHT22;9581;49.484;8.556;2023-05-17T15:47:45;33.50;38.20
18898;DHT22;9581;49.484;8.556;2023-05-17T15:50:13;30.80;38.40
18898;DHT22;9581;49.484;8.556;2023-05-17T15:52:40;27.70;41.70
18898;DHT22;9581;49.484;8.556;2023-05-17T15:55:08;26.50;45.20